Flight Track Log - Related Links

Times and Time Zones

All times are in EST time to prevent confusion due to time zone crossing. See the N418DR flight status page for this flight to view local times or setup timezone preferences in your user account.

Time Position Orientation Groundspeed Altitude Reporting Facility
EST Latitude Longitude Course Direction KTS MPH feet Rate Location/Type
Fri 04:13:57 PM 39.5167 -104.8667 205° Southwest 156 180 7,700  Level Denver TRACON
Fri 04:14:55 PM 39.4667 -104.8833 194° South 170 196 9,200 1,169 Climbing Denver TRACON
Fri 04:15:55 PM 39.4167 -104.8833 180° South 187 215 10,000 992 Climbing Denver TRACON
Fri 04:16:56 PM 39.3667 -104.8667 166° South 192 221 11,200 1,240 Climbing Denver TRACON
Fri 04:17:56 PM 39.3167 -104.8667 180° South 184 212 12,500 1,253 Climbing Denver TRACON
Fri 04:18:27 PM 39.2922 -104.8769 198° South 180 207 13,100 1,226 Climbing Denver Center
Fri 04:19:00 PM 39.1835 -105.0194 205° Southwest  Level FlightAware Approximate
Fri 04:19:29 PM 39.2419 -104.9014 201° Southwest 178 205 14,400  Level Denver Center
Fri 04:20:31 PM 39.2103 -104.9456 227° Southwest 167 192 15,700 1,306 Climbing Denver Center
Fri 04:21:33 PM 39.1831 -104.9956 235° Southwest 159 183 17,100 1,355 Climbing Denver Center
Fri 04:22:35 PM 39.1586 -105.0356 232° Southwest 145 167 18,500 968 Climbing Denver Center
Fri 04:23:37 PM 39.1339 -105.0686 226° Southwest 143 165 19,100 581 Climbing Denver Center
Fri 04:24:39 PM 39.0856 -105.0947 203° Southwest 178 205 19,700 484 Climbing Denver Center
Fri 04:25:41 PM 39.0161 -105.1353 204° Southwest 225 259 20,100 194 Climbing Denver Center
Fri 04:26:43 PM 38.9539 -105.1722 205° Southwest 242 278 20,100  Level Denver Center
Fri 04:27:45 PM 38.8900 -105.2097 205° Southwest 251 289 20,100  Level Denver Center
Fri 04:28:47 PM 38.8256 -105.2478 205° Southwest 253 291 20,100  Level Denver Center
Fri 04:29:49 PM 38.7494 -105.2919 204° Southwest 266 306 20,100  Level Denver Center
Fri 04:30:51 PM 38.6853 -105.3286 204° Southwest 264 304 20,100  Level Denver Center
Fri 04:31:52 PM 38.6300 -105.3608 204° Southwest 269 310 20,100  Level Denver Center
Fri 04:32:55 PM 38.5642 -105.4419 224° Southwest 258 297 20,100 -48 Level Denver Center
Fri 04:33:57 PM 38.5108 -105.5042 222° Southwest 250 288 20,000  Descending Denver Center
Fri 04:34:58 PM 38.4594 -105.5647 223° Southwest 251 289 20,100 49 Climbing Denver Center
Fri 04:36:00 PM 38.4092 -105.6242 223° Southwest 249 287 20,100 -48 Level Denver Center
Fri 04:37:02 PM 38.3600 -105.6839 224° Southwest 246 283 20,000  Descending Denver Center
Fri 04:38:04 PM 38.3067 -105.7444 222° Southwest 242 278 20,100  Climbing Denver Center
Fri 04:39:06 PM 38.2506 -105.8100 223° Southwest 242 278 20,000 -48 Descending Denver Center
Fri 04:40:08 PM 38.2031 -105.8664 223° Southwest 246 283 20,000 48 Level Denver Center
Fri 04:41:10 PM 38.1486 -105.9308 223° Southwest 245 282 20,100 48 Climbing Denver Center
Fri 04:42:12 PM 38.1036 -105.9822 222° Southwest 238 274 20,100  Level Denver Center
Fri 04:43:14 PM 38.0431 -106.0489 221° Southwest 245 282 20,100  Level Denver Center
Fri 04:44:16 PM 38.0022 -106.0961 222° Southwest 247 284 20,100 290 Level Denver Center
Fri 04:45:18 PM 37.9419 -106.1661 222° Southwest 235 270 20,700 532 Climbing Denver Center
Fri 04:46:20 PM 37.8992 -106.2164 223° Southwest 228 262 21,200 484 Climbing Denver Center
Fri 04:47:22 PM 37.8506 -106.2744 223° Southwest 221 254 21,700 387 Climbing Denver Center
Fri 04:48:24 PM 37.7964 -106.3317 220° Southwest 230 265 22,000 145 Climbing Denver Center
Fri 04:49:26 PM 37.7517 -106.3842 223° Southwest 231 266 22,000 48 Level Denver Center
Fri 04:50:28 PM 37.6939 -106.4469 221° Southwest 243 280 22,100 48 Climbing Denver Center
Fri 04:51:30 PM 37.6472 -106.5014 223° Southwest 242 278 22,100 -48 Level Denver Center
Fri 04:52:32 PM 37.5978 -106.5581 222° Southwest 245 282 22,000  Descending Denver Center
Fri 04:53:34 PM 37.5392 -106.6214 221° Southwest 248 285 22,100  Climbing Denver Center
Fri 04:54:36 PM 37.4914 -106.6783 223° Southwest 245 282 22,000 -48 Descending Denver Center
Fri 04:55:38 PM 37.4344 -106.7406 221° Southwest 244 281 22,000  Level Denver Center
Fri 04:56:40 PM 37.3867 -106.7931 221° Southwest 240 276 22,000  Level Denver Center
Fri 04:57:54 PM 37.3325 -106.8561 223° Southwest 238 274 22,000  Level Denver Center
Fri 04:58:57 PM 37.2703 -106.9244 221° Southwest 234 269 22,000 48 Level Denver Center
Fri 04:59:59 PM 37.2242 -106.9764 222° Southwest 233 268 22,100 48 Climbing Denver Center
Fri 05:01:01 PM 37.1789 -107.0283 222° Southwest 231 266 22,100  Level Denver Center
Fri 05:02:03 PM 37.1247 -107.0878 221° Southwest 231 266 22,100  Level Denver Center
Fri 05:03:05 PM 37.0800 -107.1386 222° Southwest 229 264 22,100  Level Denver Center
Fri 05:04:07 PM 37.0344 -107.1886 221° Southwest 228 262 22,100  Level Denver Center
Fri 05:05:09 PM 36.9817 -107.2458 221° Southwest 226 260 22,100  Level Denver Center
Fri 05:06:11 PM 36.9461 -107.2861 222° Southwest 222 255 22,100  Level Denver Center
Fri 05:07:13 PM 36.8872 -107.3514 222° Southwest 221 254 22,100 -48 Level Denver Center
Fri 05:08:15 PM 36.8372 -107.4092 223° Southwest 220 253 22,000 -44 Descending Denver Center
Fri 05:09:29 PM 36.7925 -107.4578 221° Southwest 221 254 22,000 44 Level Denver Center
Fri 05:10:32 PM 36.7314 -107.5219 220° Southwest 223 257 22,100 48 Climbing Denver Center
Fri 05:11:34 PM 36.6878 -107.5717 222° Southwest 223 257 22,100 -48 Level Denver Center
Fri 05:12:36 PM 36.6361 -107.6289 222° Southwest 222 255 22,000  Descending Denver Center
Fri 05:13:38 PM 36.5919 -107.6764 221° Southwest 221 254 22,100  Climbing Denver Center
Fri 05:14:40 PM 36.5403 -107.7325 221° Southwest 220 253 22,000  Descending Denver Center
Fri 05:15:42 PM 36.4964 -107.7794 221° Southwest 219 252 22,100 48 Climbing Denver Center
Fri 05:16:44 PM 36.4453 -107.8353 221° Southwest 219 252 22,100 -48 Level Denver Center
Fri 05:17:46 PM 36.4017 -107.8825 221° Southwest 218 251 22,000 -53 Descending Denver Center
Fri 05:18:37 PM 36.3586 -107.9319 223° Southwest 217 250 22,000  Level Albuquerque Center
Fri 05:19:39 PM 36.3153 -107.9786 221° Southwest 217 250 22,000  Level Albuquerque Center
Fri 05:20:41 PM 36.2725 -108.0239 220° Southwest 213 245 22,000 -432 Level Albuquerque Center
Fri 05:21:44 PM 36.2186 -108.0844 222° Southwest 226 260 21,100 -816 Descending Albuquerque Center
Fri 05:22:46 PM 36.1692 -108.1381 221° Southwest 237 273 20,300 -774 Descending Albuquerque Center
Fri 05:23:48 PM 36.1103 -108.2003 220° Southwest 244 281 19,500 -774 Descending Albuquerque Center
Fri 05:24:50 PM 36.0592 -108.2547 221° Southwest 248 285 18,700 -726 Descending Albuquerque Center
Fri 05:25:52 PM 35.9989 -108.3197 221° Southwest 253 291 18,000 -339 Descending Albuquerque Center
Fri 05:26:54 PM 35.9483 -108.3733 221° Southwest 252 290 18,000  Level Albuquerque Center
Fri 05:27:56 PM 35.8922 -108.4328 221° Southwest 244 281 18,000  Level Albuquerque Center
Fri 05:28:58 PM 35.8464 -108.4822 221° Southwest 235 270 18,000  Level Albuquerque Center
Fri 05:30:00 PM 35.7911 -108.5408 221° Southwest 233 268 18,000  Level Albuquerque Center
Fri 05:31:02 PM 35.7428 -108.5914 220° Southwest 235 270 18,000  Level Albuquerque Center
Fri 05:32:04 PM 35.6969 -108.6414 222° Southwest 232 267 18,000  Level Albuquerque Center
Fri 05:33:06 PM 35.6419 -108.6981 220° Southwest 230 265 18,000  Level Albuquerque Center
Fri 05:34:08 PM 35.5944 -108.7489 221° Southwest 233 268 18,000  Level Albuquerque Center
Fri 05:35:10 PM 35.5381 -108.8081 220° Southwest 236 272 18,000  Level Albuquerque Center
Fri 05:36:12 PM 35.4903 -108.8583 221° Southwest 236 272 18,000  Level Albuquerque Center
Fri 05:37:14 PM 35.4458 -108.9236 230° Southwest 227 261 18,000  Level Albuquerque Center
Fri 05:38:16 PM 35.4147 -108.9864 239° Southwest 225 259 18,000  Level Albuquerque Center
Fri 05:39:18 PM 35.3750 -109.0581 236° Southwest 227 261 18,000  Level Albuquerque Center
Fri 05:40:20 PM 35.3417 -109.1186 236° Southwest 226 260 18,000  Level Albuquerque Center
Fri 05:41:23 PM 35.3078 -109.1786 235° Southwest 224 258 18,000  Level Albuquerque Center
Fri 05:42:25 PM 35.2706 -109.2481 237° Southwest 221 254 18,000  Level Albuquerque Center
Fri 05:43:27 PM 35.2367 -109.3086 236° Southwest 222 255 18,000  Level Albuquerque Center
Fri 05:44:29 PM 35.1969 -109.3797 236° Southwest 225 259 18,000  Level Albuquerque Center
Fri 05:45:31 PM 35.1633 -109.4408 236° Southwest 226 260 18,000  Level Albuquerque Center
Fri 05:46:33 PM 35.1242 -109.5111 236° Southwest 225 259 18,000  Level Albuquerque Center
Fri 05:47:35 PM 35.0906 -109.5725 236° Southwest 225 259 18,000  Level Albuquerque Center
Fri 05:48:37 PM 35.0511 -109.6422 235° Southwest 225 259 18,000  Level Albuquerque Center
Fri 05:49:39 PM 35.0172 -109.7036 236° Southwest 226 260 18,000  Level Albuquerque Center
Fri 05:50:41 PM 34.9783 -109.7747 236° Southwest 226 260 18,000  Level Albuquerque Center
Fri 05:51:42 PM 34.9436 -109.8358 235° Southwest 227 261 18,000  Level Albuquerque Center
Fri 05:52:44 PM 34.9089 -109.8969 235° Southwest 228 262 18,000  Level Albuquerque Center
Fri 05:53:46 PM 34.8683 -109.9697 236° Southwest 230 265 18,000  Level Albuquerque Center
Fri 05:54:48 PM 34.8333 -110.0314 235° Southwest 231 266 18,000  Level Albuquerque Center
Fri 05:55:50 PM 34.7922 -110.1044 236° Southwest 232 267 18,000  Level Albuquerque Center
Fri 05:56:52 PM 34.7583 -110.1700 238° Southwest 237 273 18,000  Level Albuquerque Center
Fri 05:57:54 PM 34.7378 -110.2503 253° West 222 255 18,000  Level Albuquerque Center
Fri 05:58:56 PM 34.6992 -110.3089 231° Southwest 242 278 18,000  Level Albuquerque Center
Fri 05:59:57 PM 34.6431 -110.3694 222° Southwest 244 281 18,000  Level Albuquerque Center
Fri 06:00:59 PM 34.6014 -110.4308 231° Southwest 243 280 18,000  Level Albuquerque Center
Fri 06:02:01 PM 34.5589 -110.4911 229° Southwest 244 281 18,000  Level Albuquerque Center
Fri 06:03:03 PM 34.5075 -110.5594 228° Southwest 245 282 18,000  Level Albuquerque Center
Fri 06:04:05 PM 34.4647 -110.6206 230° Southwest 241 277 18,000  Level Albuquerque Center
Fri 06:05:07 PM 34.4192 -110.6808 228° Southwest 241 277 18,000  Level Albuquerque Center
Fri 06:06:09 PM 34.3714 -110.7406 226° Southwest 245 282 18,000 -145 Level Albuquerque Center
Fri 06:07:11 PM 34.3242 -110.8036 228° Southwest 251 289 17,700 -823 Descending Albuquerque Center
Fri 06:08:13 PM 34.2775 -110.8703 230° Southwest 256 295 16,300 -1,355 Descending Albuquerque Center
Fri 06:09:15 PM 34.2200 -110.9431 226° Southwest 252 290 14,900 -1,355 Descending Albuquerque Center
Fri 06:10:17 PM 34.1767 -110.9953 225° Southwest 232 267 13,500 -1,317 Descending Albuquerque Center
Fri 06:11:18 PM 34.1383 -111.0442 227° Southwest 216 249 12,200 -1,171 Descending Albuquerque Center
Fri 06:12:20 PM 34.1017 -111.0936 228° Southwest 207 238 11,100 -629 Descending Albuquerque Center
Fri 06:13:22 PM 34.0669 -111.1356 225° Southwest 191 220 10,900 -48 Descending Albuquerque Center
Fri 06:14:24 PM 34.0358 -111.1742 226° Southwest 172 198 11,000 48 Climbing Albuquerque Center
Fri 06:15:26 PM 34.0061 -111.2233 234° Southwest 174 200 11,000 -97 Level Albuquerque Center
Fri 06:16:28 PM 33.9667 -111.2819 231° Southwest 185 213 10,800 -387 Descending Albuquerque Center
Fri 06:17:30 PM 33.9306 -111.3358 231° Southwest 203 234 10,200 -435 Descending Albuquerque Center
Fri 06:18:32 PM 33.8925 -111.3842 227° Southwest 197 227 9,900 -49 Descending Albuquerque Center
Fri 06:19:33 PM 33.8614 -111.4206 224° Southwest 161 185 10,100 49 Climbing Albuquerque Center
Fri 06:20:35 PM 33.8242 -111.4681 227° Southwest 191 220 10,000 -48 Descending Albuquerque Center
Fri 06:21:37 PM 33.7911 -111.5094 226° Southwest 175 201 10,000  Level Albuquerque Center
Fri 06:22:39 PM 33.7611 -111.5492 228° Southwest 162 186 10,000 -387 Level Albuquerque Center
Fri 06:23:41 PM 33.7222 -111.6011 228° Southwest 174 200 9,200 -871 Descending Albuquerque Center
Fri 06:24:43 PM 33.6714 -111.6272 203° Southwest 196 226 8,200 -968 Descending Albuquerque Center
Fri 06:25:45 PM 33.6244 -111.6492 201° Southwest 181 208 7,200 -919 Descending Albuquerque Center
Fri 06:26:47 PM 33.5778 -111.6767 206° Southwest 185 213 6,300 -871 Descending Albuquerque Center
Fri 06:27:49 PM 33.5308 -111.7019 204° Southwest 184 212 5,400 -677 Descending Albuquerque Center
Fri 06:28:51 PM 33.4881 -111.7286 207° Southwest 174 200 4,900 -242 Descending Albuquerque Center
Fri 06:29:53 PM 33.4633 -111.7733 236° Southwest 165 190 4,900 -532 Level Albuquerque Center
Fri 06:30:55 PM 33.4417 -111.8436 250° West 184 212 3,800 -1,161 Descending Albuquerque Center
Fri 06:31:57 PM 33.4406 -111.9072 269° West 191 220 2,500 -968 Descending Albuquerque Center
Fri 06:32:59 PM 33.4408 -111.9522 270° West 135 155 1,800 -629 Descending Albuquerque Center
Fri 06:34:01 PM 33.4403 -111.9886 269° West 124 143 1,200 -581 Descending Albuquerque Center
Fri 06:36:00 PM 33.4333 -112.0000 270° West  Level FlightAware Approximate

Login

Don't have an account? Register now (free) for customized features, flight alerts, and more!